Flight Track Log - Related Links

Times and Time Zones

All times are in EDT time to prevent confusion due to time zone crossing. See the UPS1269 flight status page for this flight to view local times or setup timezone preferences in your user account.

Time Position Orientation Groundspeed Altitude Reporting Facility
EDT Latitude Longitude Course Direction KTS MPH feet Rate Location/Type
Wed 11:33:42 PM 36.1506 -80.0711 296° West 282 325 7,900  Level Atlanta Center
Wed 11:34:42 PM 36.1869 -80.1619 296° West 288 331 11,000 2,642 Climbing Atlanta Center
Wed 11:38:00 PM 36.4605 -80.6013 296° West  Level FlightAware Approximate
Wed 11:40:33 PM 36.3728 -80.9982 296° West 471 542 26,000  Level FlightAware ADS-B
Wed 11:41:06 PM 36.3940 -81.0600 293° West 27,200 1,629 Climbing FlightAware ADS-B
Wed 11:41:43 PM 36.4250 -81.1490 293° West 464 534 27,900 575 Climbing FlightAware ADS-B
Wed 11:42:19 PM 36.4510 -81.2240 293° West 464 534 27,900 3,079 Level FlightAware ADS-B
Wed 11:42:59 PM 36.4965 -81.3579 293° West 464 534 31,800 3,465 Climbing FlightAware ADS-B
Wed 11:43:30 PM 36.5222 -81.4319 293° West 467 537 32,000 197 Climbing FlightAware ADS-B
Wed 11:44:00 PM 36.5473 -81.5056 293° West 462 532 32,000  Level FlightAware ADS-B
Wed 11:44:41 PM 36.5814 -81.6061 293° West 467 537 32,000  Level FlightAware ADS-B
Wed 11:45:15 PM 36.6107 -81.6939 293° West 477 549 32,000  Level FlightAware ADS-B
Wed 11:45:47 PM 36.6383 -81.7753 293° West 480 552 32,000  Level FlightAware ADS-B
Wed 11:46:32 PM 36.6767 -81.8894 293° West 477 549 32,000  Level FlightAware ADS-B
Wed 11:47:08 PM 36.7070 -81.9776 293° West 471 542 32,000  Level FlightAware ADS-B
Wed 11:47:39 PM 36.7331 -82.0552 293° West 472 543 32,000  Level FlightAware ADS-B
Wed 11:48:11 PM 36.7602 -82.1389 292° West 479 551 32,000  Level FlightAware ADS-B
Wed 11:48:43 PM 36.7871 -82.2182 293° West 481 554 32,000  Level FlightAware ADS-B
Wed 11:49:18 PM 36.8176 -82.3105 292° West 480 552 32,000  Level FlightAware ADS-B
Wed 11:49:49 PM 36.8437 -82.3897 292° West 479 551 32,000  Level FlightAware ADS-B
Wed 11:50:19 PM 36.8691 -82.4661 293° West 478 550 32,000  Level FlightAware ADS-B
Wed 11:50:49 PM 36.8944 -82.5426 292° West 479 551 32,000  Level FlightAware ADS-B
Wed 11:51:19 PM 36.9195 -82.6194 292° West 479 551 32,000  Level FlightAware ADS-B
Wed 11:51:49 PM 36.9446 -82.6963 292° West 479 551 32,000  Level FlightAware ADS-B
Wed 11:52:20 PM 36.9702 -82.7734 293° West 481 554 32,000  Level FlightAware ADS-B
Wed 11:52:53 PM 36.9984 -82.8610 292° West 482 555 32,000  Level FlightAware ADS-B
Wed 11:53:30 PM 37.0291 -82.9565 292° West 482 555 32,000  Level FlightAware ADS-B
Wed 11:54:00 PM 37.0545 -83.0339 292° West 481 554 32,000  Level FlightAware ADS-B
Wed 11:54:31 PM 37.0801 -83.1139 292° West 482 555 32,000  Level FlightAware ADS-B
Wed 11:55:02 PM 37.1060 -83.1940 292° West 483 556 32,000  Level FlightAware ADS-B
Wed 11:55:33 PM 37.1314 -83.2720 292° West 482 555 32,000  Level FlightAware ADS-B
Wed 11:56:03 PM 37.1569 -83.3523 292° West 482 555 32,000  Level FlightAware ADS-B
Wed 11:56:35 PM 37.1827 -83.4326 292° West 483 556 32,000 -484 Level FlightAware ADS-B
Wed 11:57:05 PM 37.2081 -83.5134 292° West 486 559 31,500 -963 Descending FlightAware ADS-B
Wed 11:57:56 PM 37.2463 -83.6480 290° West 486 559 30,700 -940 Descending FlightAware ADS-B
Wed 11:58:28 PM 37.2681 -83.7302 288° West 481 554 30,200 -968 Descending FlightAware ADS-B
Wed 11:58:58 PM 37.2891 -83.8117 288° West 477 549 29,700 -1,324 Descending FlightAware ADS-B
Wed 11:59:36 PM 37.3152 -83.9089 289° West 478 550 28,700 -2,261 Descending FlightAware ADS-B
Thu 12:00:07 AM 37.3363 -83.9887 288° West 469 540 27,100 -3,148 Descending FlightAware ADS-B
Thu 12:00:37 AM 37.3570 -84.0682 288° West 462 532 25,500 -3,036 Descending FlightAware ADS-B
Thu 12:01:30 AM 37.3927 -84.2006 289° West 449 517 22,900 -2,894 Descending FlightAware ADS-B
Thu 12:02:02 AM 37.4183 -84.2744 294° West 442 509 21,400 -2,806 Descending FlightAware ADS-B
Thu 12:02:32 AM 37.4436 -84.3463 294° West 432 497 20,000 -1,749 Descending FlightAware ADS-B
Thu 12:08:10 AM 37.7000 -85.0180 296° West 9,800 -1,663 Descending FlightAware ADS-B
Thu 12:08:40 AM 37.7380 -85.0690 313° West 350 403 9,800 109 Level FlightAware ADS-B
Thu 12:09:05 AM 37.7640 -85.1040 313° West 325 374 9,900 100 Climbing FlightAware ADS-B
Thu 12:09:40 AM 37.7950 -85.1470 312° West 308 354 9,900 -1,300 Level FlightAware ADS-B
Thu 12:10:05 AM 37.8200 -85.1810 313° West 296 341 8,600 -1,300 Descending FlightAware ADS-B
Thu 12:10:40 AM 37.8480 -85.2200 312° West 296 341 8,600 -1,520 Level FlightAware ADS-B
Thu 12:11:20 AM 37.8890 -85.2770 312° West 286 329 6,700 -2,509 Descending FlightAware ADS-B
Thu 12:11:35 AM 37.9020 -85.2960 311° West 287 330 6,300 -1,067 Descending FlightAware ADS-B
Thu 12:12:05 AM 37.9280 -85.3310 313° West 281 323 5,900 -600 Descending FlightAware ADS-B
Thu 12:12:25 AM 37.9440 -85.3530 313° West 280 322 5,800 -86 Descending FlightAware ADS-B
Thu 12:13:15 AM 37.9850 -85.4110 312° West 283 326 5,800 80 Level FlightAware ADS-B
Thu 12:13:40 AM 38.0120 -85.4490 312° West 282 325 5,900 120 Climbing FlightAware ADS-B
Thu 12:14:05 AM 38.0330 -85.4780 313° West 265 305 5,900  Level FlightAware ADS-B
Thu 12:14:35 AM 38.0580 -85.5120 313° West 246 283 5,900 -133 Level FlightAware ADS-B
Thu 12:14:50 AM 38.0680 -85.5270 310° West 246 283 5,800 -789 Descending FlightAware ADS-B
Thu 12:15:13 AM 38.0870 -85.5530 313° West 240 276 5,400 -740 Descending FlightAware ADS-B
Thu 12:16:03 AM 38.1270 -85.5890 325° Northwest 239 275 4,900 -474 Descending FlightAware ADS-B
Thu 12:16:29 AM 38.1560 -85.6030 339° North 238 274 4,800 -109 Descending FlightAware ADS-B
Thu 12:16:58 AM 38.1860 -85.6170 340° North 239 275 4,800  Level FlightAware ADS-B
Thu 12:17:15 AM 38.2080 -85.6270 340° North 239 275 4,800  Level FlightAware ADS-B
Thu 12:17:43 AM 38.2370 -85.6370 345° North 240 276 4,800  Level FlightAware ADS-B
Thu 12:18:12 AM 38.2680 -85.6470 346° North 241 277 4,800 125 Level FlightAware ADS-B
Thu 12:18:31 AM 38.2900 -85.6550 344° North 240 276 4,900 128 Climbing FlightAware ADS-B
Thu 12:18:59 AM 38.3190 -85.6660 343° North 239 275 4,900  Level FlightAware ADS-B
Thu 12:19:27 AM 38.3490 -85.6770 344° North 239 275 4,900 -107 Level FlightAware ADS-B
Thu 12:19:55 AM 38.3790 -85.6880 344° North 239 275 4,800 -115 Descending FlightAware ADS-B
Thu 12:20:19 AM 38.4050 -85.6970 345° North 239 275 4,800 150 Level FlightAware ADS-B
Thu 12:20:35 AM 38.4230 -85.7040 343° North 240 276 4,900  Climbing FlightAware ADS-B
Thu 12:21:03 AM 38.4500 -85.7140 344° North 239 275 4,800 -107 Descending FlightAware ADS-B
Thu 12:21:31 AM 38.4800 -85.7260 343° North 227 261 4,800 136 Level FlightAware ADS-B
Thu 12:21:47 AM 38.4900 -85.7400 312° West 212 244 4,900  Climbing FlightAware ADS-B
Thu 12:21:55 AM 38.4930 -85.7510 289° West 205 236 4,800  Descending FlightAware ADS-B
Thu 12:22:15 AM 38.4900 -85.7740 261° West 187 215 4,900 188 Climbing FlightAware ADS-B
Thu 12:22:27 AM 38.4880 -85.7850 257° West 183 211 4,900  Level FlightAware ADS-B
Thu 12:22:55 AM 38.4830 -85.8170 259° West 180 207 4,900 -107 Level FlightAware ADS-B
Thu 12:23:23 AM 38.4700 -85.8370 230° Southwest 171 197 4,800 -107 Descending FlightAware ADS-B
Thu 12:23:51 AM 38.4490 -85.8250 156° South 174 200 4,800 107 Level FlightAware ADS-B
Thu 12:24:19 AM 38.4290 -85.8140 157° South 174 200 4,900  Climbing FlightAware ADS-B
Thu 12:24:35 AM 38.4160 -85.8090 163° South 175 201 4,800 -783 Descending FlightAware ADS-B
Thu 12:25:05 AM 38.3930 -85.8010 165° South 178 205 4,300 -931 Descending FlightAware ADS-B
Thu 12:25:33 AM 38.3700 -85.7950 168° South 170 196 3,900 -808 Descending FlightAware ADS-B
Thu 12:25:57 AM 38.3520 -85.7880 163° South 168 193 3,600 -750 Descending FlightAware ADS-B
Thu 12:26:29 AM 38.3290 -85.7800 165° South 167 192 3,200 -857 Descending FlightAware ADS-B
Thu 12:26:39 AM 38.3200 -85.7770 165° South 165 190 3,000 -1,000 Descending FlightAware ADS-B
Thu 12:27:05 AM 38.3010 -85.7700 164° South 163 188 2,600 -923 Descending FlightAware ADS-B
Thu 12:27:31 AM 38.2820 -85.7640 166° South 162 186 2,200 -808 Descending FlightAware ADS-B
Thu 12:27:57 AM 38.2640 -85.7580 165° South 141 162 1,900 -667 Descending FlightAware ADS-B
Thu 12:28:25 AM 38.2490 -85.7520 163° South 111 128 1,600 -643 Descending FlightAware ADS-B
Thu 12:28:53 AM 38.2350 -85.7480 167° South 115 132 1,300 -600 Descending FlightAware ADS-B
Thu 12:29:05 AM 38.2290 -85.7460 165° South 116 133 1,200 -500 Descending FlightAware ADS-B
Thu 12:29:29 AM 38.2160 -85.7410 163° South 118 136 1,000 -667 Descending FlightAware ADS-B
Thu 12:29:59 AM 38.2000 -85.7360 166° South 115 132 600 -643 Descending FlightAware ADS-B
Thu 12:30:25 AM 38.1870 -85.7310 163° South 121 139 400 -462 Descending FlightAware ADS-B
Thu 12:30:51 AM 38.1750 -85.7270 165° South 69 79 -923 Descending FlightAware ADS-B
Thu 12:31:05 AM 38.1720 -85.7260 165° South 29 33  Level FlightAware ADS-B
Thu 12:31:17 AM 38.1710 -85.7270 218° Southwest 16 18  Level FlightAware ADS-B

Login

Don't have an account? Register now (free) for customized features, flight alerts, and more!